sensor_id;sensor_type;location;lat;lon;timestamp;P1;durP1;ratioP1;P2;durP2;ratioP2
5841;SDS011;2947;52.276;9.946;2022-11-15T00:00:50;15.10;;;7.97;;
5841;SDS011;2947;52.276;9.946;2022-11-15T00:03:17;14.63;;;7.50;;
5841;SDS011;2947;52.276;9.946;2022-11-15T00:05:45;12.33;;;7.20;;
5841;SDS011;2947;52.276;9.946;2022-11-15T00:08:12;12.17;;;7.33;;
5841;SDS011;2947;52.276;9.946;2022-11-15T00:10:38;16.70;;;8.20;;
5841;SDS011;2947;52.276;9.946;2022-11-15T00:13:04;15.87;;;8.60;;
5841;SDS011;2947;52.276;9.946;2022-11-15T00:15:35;13.70;;;8.17;;
5841;SDS011;2947;52.276;9.946;2022-11-15T00:18:05;12.57;;;7.10;;
5841;SDS011;2947;52.276;9.946;2022-11-15T00:20:36;13.23;;;7.77;;
5841;SDS011;2947;52.276;9.946;2022-11-15T00:23:02;15.83;;;8.30;;
5841;SDS011;2947;52.276;9.946;2022-11-15T00:25:29;16.33;;;8.10;;
5841;SDS011;2947;52.276;9.946;2022-11-15T00:27:55;18.77;;;7.40;;
5841;SDS011;2947;52.276;9.946;2022-11-15T00:30:22;16.13;;;7.03;;
5841;SDS011;2947;52.276;9.946;2022-11-15T00:32:48;17.00;;;8.07;;
5841;SDS011;2947;52.276;9.946;2022-11-15T00:35:14;16.70;;;8.20;;
5841;SDS011;2947;52.276;9.946;2022-11-15T00:37:40;13.17;;;7.17;;
5841;SDS011;2947;52.276;9.946;2022-11-15T00:40:06;12.47;;;7.60;;
5841;SDS011;2947;52.276;9.946;2022-11-15T00:42:33;12.00;;;7.40;;
5841;SDS011;2947;52.276;9.946;2022-11-15T00:44:59;12.20;;;7.10;;
5841;SDS011;2947;52.276;9.946;2022-11-15T00:47:24;13.90;;;7.87;;
5841;SDS011;2947;52.276;9.946;2022-11-15T00:49:50;18.37;;;8.40;;
5841;SDS011;2947;52.276;9.946;2022-11-15T00:52:16;16.03;;;8.10;;
5841;SDS011;2947;52.276;9.946;2022-11-15T00:54:41;11.30;;;7.30;;
5841;SDS011;2947;52.276;9.946;2022-11-15T00:57:07;13.70;;;7.67;;
5841;SDS011;2947;52.276;9.946;2022-11-15T00:59:33;12.20;;;7.60;;
5841;SDS011;2947;52.276;9.946;2022-11-15T01:01:59;12.57;;;7.70;;
5841;SDS011;2947;52.276;9.946;2022-11-15T01:04:24;13.80;;;8.47;;
5841;SDS011;2947;52.276;9.946;2022-11-15T01:06:50;13.37;;;7.60;;
5841;SDS011;2947;52.276;9.946;2022-11-15T01:09:16;14.00;;;9.03;;
5841;SDS011;2947;52.276;9.946;2022-11-15T01:11:42;15.40;;;8.20;;
5841;SDS011;2947;52.276;9.946;2022-11-15T01:14:07;14.30;;;8.03;;
5841;SDS011;2947;52.276;9.946;2022-11-15T01:16:33;20.83;;;8.60;;
5841;SDS011;2947;52.276;9.946;2022-11-15T01:18:59;13.60;;;7.87;;
5841;SDS011;2947;52.276;9.946;2022-11-15T01:21:25;13.33;;;7.77;;
5841;SDS011;2947;52.276;9.946;2022-11-15T01:23:57;14.20;;;8.13;;
5841;SDS011;2947;52.276;9.946;2022-11-15T01:26:23;14.00;;;7.37;;
5841;SDS011;2947;52.276;9.946;2022-11-15T01:28:49;13.30;;;7.37;;
5841;SDS011;2947;52.276;9.946;2022-11-15T01:31:16;13.70;;;8.20;;
5841;SDS011;2947;52.276;9.946;2022-11-15T01:33:45;14.70;;;8.10;;
5841;SDS011;2947;52.276;9.946;2022-11-15T01:36:13;15.30;;;9.07;;
5841;SDS011;2947;52.276;9.946;2022-11-15T01:38:43;13.33;;;7.77;;
5841;SDS011;2947;52.276;9.946;2022-11-15T01:41:16;16.43;;;8.50;;
5841;SDS011;2947;52.276;9.946;2022-11-15T01:43:46;15.20;;;9.17;;
5841;SDS011;2947;52.276;9.946;2022-11-15T01:46:22;15.40;;;8.77;;
5841;SDS011;2947;52.276;9.946;2022-11-15T01:48:56;13.70;;;7.90;;
5841;SDS011;2947;52.276;9.946;2022-11-15T01:51:26;22.67;;;8.60;;
5841;SDS011;2947;52.276;9.946;2022-11-15T01:53:57;14.93;;;7.87;;
5841;SDS011;2947;52.276;9.946;2022-11-15T01:56:29;14.10;;;7.67;;
5841;SDS011;2947;52.276;9.946;2022-11-15T01:58:58;15.63;;;7.93;;
5841;SDS011;2947;52.276;9.946;2022-11-15T02:01:28;21.73;;;8.40;;
5841;SDS011;2947;52.276;9.946;2022-11-15T02:04:16;17.53;;;8.40;;
5841;SDS011;2947;52.276;9.946;2022-11-15T02:06:56;14.83;;;8.10;;
5841;SDS011;2947;52.276;9.946;2022-11-15T02:09:22;13.30;;;8.13;;
5841;SDS011;2947;52.276;9.946;2022-11-15T02:11:48;10.03;;;6.97;;
5841;SDS011;2947;52.276;9.946;2022-11-15T02:14:15;12.23;;;7.40;;
5841;SDS011;2947;52.276;9.946;2022-11-15T02:19:29;13.13;;;7.57;;
5841;SDS011;2947;52.276;9.946;2022-11-15T02:25:40;14.83;;;8.17;;
5841;SDS011;2947;52.276;9.946;2022-11-15T02:28:58;21.27;;;8.17;;
5841;SDS011;2947;52.276;9.946;2022-11-15T02:34:47;11.80;;;7.53;;
5841;SDS011;2947;52.276;9.946;2022-11-15T02:43:32;11.30;;;6.67;;
5841;SDS011;2947;52.276;9.946;2022-11-15T02:49:34;15.93;;;6.80;;
5841;SDS011;2947;52.276;9.946;2022-11-15T02:52:01;9.33;;;6.50;;
5841;SDS011;2947;52.276;9.946;2022-11-15T02:54:29;17.43;;;7.50;;
5841;SDS011;2947;52.276;9.946;2022-11-15T02:57:13;9.50;;;6.70;;
5841;SDS011;2947;52.276;9.946;2022-11-15T03:05:08;19.50;;;7.43;;
5841;SDS011;2947;52.276;9.946;2022-11-15T03:16:43;9.90;;;6.67;;
5841;SDS011;2947;52.276;9.946;2022-11-15T03:19:32;16.90;;;6.03;;
5841;SDS011;2947;52.276;9.946;2022-11-15T03:22:11;10.90;;;6.57;;
5841;SDS011;2947;52.276;9.946;2022-11-15T03:24:42;11.13;;;5.70;;
5841;SDS011;2947;52.276;9.946;2022-11-15T03:27:12;8.50;;;6.17;;
5841;SDS011;2947;52.276;9.946;2022-11-15T03:29:44;10.93;;;5.87;;
5841;SDS011;2947;52.276;9.946;2022-11-15T03:32:16;10.00;;;6.00;;
5841;SDS011;2947;52.276;9.946;2022-11-15T03:34:47;11.40;;;5.83;;
5841;SDS011;2947;52.276;9.946;2022-11-15T03:40:30;13.70;;;5.77;;
5841;SDS011;2947;52.276;9.946;2022-11-15T03:45:57;10.40;;;4.53;;
5841;SDS011;2947;52.276;9.946;2022-11-15T03:48:37;10.63;;;5.23;;
5841;SDS011;2947;52.276;9.946;2022-11-15T03:51:08;13.80;;;5.57;;
5841;SDS011;2947;52.276;9.946;2022-11-15T03:53:35;7.97;;;4.90;;
5841;SDS011;2947;52.276;9.946;2022-11-15T03:56:01;14.43;;;5.80;;
5841;SDS011;2947;52.276;9.946;2022-11-15T03:58:26;8.47;;;4.67;;
5841;SDS011;2947;52.276;9.946;2022-11-15T04:00:52;10.23;;;5.73;;
5841;SDS011;2947;52.276;9.946;2022-11-15T04:03:18;10.03;;;4.93;;
5841;SDS011;2947;52.276;9.946;2022-11-15T04:05:43;8.67;;;5.03;;
5841;SDS011;2947;52.276;9.946;2022-11-15T04:08:09;11.83;;;5.00;;
5841;SDS011;2947;52.276;9.946;2022-11-15T04:10:35;11.10;;;5.53;;
5841;SDS011;2947;52.276;9.946;2022-11-15T04:13:01;9.80;;;4.50;;
5841;SDS011;2947;52.276;9.946;2022-11-15T04:15:27;10.93;;;5.53;;
5841;SDS011;2947;52.276;9.946;2022-11-15T04:17:55;10.87;;;4.93;;
5841;SDS011;2947;52.276;9.946;2022-11-15T04:20:26;7.50;;;4.90;;
5841;SDS011;2947;52.276;9.946;2022-11-15T04:23:20;9.80;;;5.20;;
5841;SDS011;2947;52.276;9.946;2022-11-15T04:26:27;11.27;;;4.77;;
5841;SDS011;2947;52.276;9.946;2022-11-15T04:28:52;12.67;;;5.17;;
5841;SDS011;2947;52.276;9.946;2022-11-15T04:31:36;6.20;;;4.00;;
5841;SDS011;2947;52.276;9.946;2022-11-15T04:34:02;12.50;;;4.60;;
5841;SDS011;2947;52.276;9.946;2022-11-15T04:36:27;9.07;;;4.90;;
5841;SDS011;2947;52.276;9.946;2022-11-15T04:39:12;8.23;;;5.13;;
5841;SDS011;2947;52.276;9.946;2022-11-15T04:41:37;9.30;;;5.57;;
5841;SDS011;2947;52.276;9.946;2022-11-15T04:44:03;10.47;;;4.50;;
5841;SDS011;2947;52.276;9.946;2022-11-15T04:46:29;11.10;;;5.23;;
5841;SDS011;2947;52.276;9.946;2022-11-15T04:48:55;7.83;;;4.30;;
5841;SDS011;2947;52.276;9.946;2022-11-15T04:51:20;8.03;;;4.47;;
5841;SDS011;2947;52.276;9.946;2022-11-15T04:53:46;9.50;;;4.73;;
5841;SDS011;2947;52.276;9.946;2022-11-15T04:56:12;8.27;;;5.13;;
5841;SDS011;2947;52.276;9.946;2022-11-15T04:58:38;8.40;;;5.03;;
5841;SDS011;2947;52.276;9.946;2022-11-15T05:01:07;10.50;;;4.57;;
5841;SDS011;2947;52.276;9.946;2022-11-15T05:03:36;11.30;;;4.57;;
5841;SDS011;2947;52.276;9.946;2022-11-15T05:06:38;10.17;;;5.53;;
5841;SDS011;2947;52.276;9.946;2022-11-15T05:09:04;9.07;;;4.97;;
5841;SDS011;2947;52.276;9.946;2022-11-15T05:11:30;13.00;;;5.13;;
5841;SDS011;2947;52.276;9.946;2022-11-15T05:13:56;11.63;;;5.60;;
5841;SDS011;2947;52.276;9.946;2022-11-15T05:16:21;7.30;;;5.00;;
5841;SDS011;2947;52.276;9.946;2022-11-15T05:18:50;10.87;;;5.07;;
5841;SDS011;2947;52.276;9.946;2022-11-15T05:21:17;7.97;;;4.40;;
5841;SDS011;2947;52.276;9.946;2022-11-15T05:23:43;6.53;;;4.40;;
5841;SDS011;2947;52.276;9.946;2022-11-15T05:26:08;9.10;;;4.53;;
5841;SDS011;2947;52.276;9.946;2022-11-15T05:28:34;10.90;;;4.33;;
5841;SDS011;2947;52.276;9.946;2022-11-15T05:31:02;7.50;;;4.70;;
5841;SDS011;2947;52.276;9.946;2022-11-15T05:33:33;10.57;;;4.60;;
5841;SDS011;2947;52.276;9.946;2022-11-15T05:36:12;7.60;;;4.27;;
5841;SDS011;2947;52.276;9.946;2022-11-15T05:38:51;8.70;;;5.17;;
5841;SDS011;2947;52.276;9.946;2022-11-15T05:41:18;9.33;;;4.73;;
5841;SDS011;2947;52.276;9.946;2022-11-15T05:43:48;13.60;;;5.53;;
5841;SDS011;2947;52.276;9.946;2022-11-15T05:46:16;10.60;;;4.53;;
5841;SDS011;2947;52.276;9.946;2022-11-15T05:48:43;9.00;;;5.10;;
5841;SDS011;2947;52.276;9.946;2022-11-15T05:51:13;8.03;;;5.30;;
5841;SDS011;2947;52.276;9.946;2022-11-15T05:53:42;12.40;;;5.03;;
5841;SDS011;2947;52.276;9.946;2022-11-15T05:56:09;11.63;;;6.20;;
5841;SDS011;2947;52.276;9.946;2022-11-15T05:58:35;9.57;;;5.10;;
5841;SDS011;2947;52.276;9.946;2022-11-15T06:01:02;13.90;;;4.47;;
5841;SDS011;2947;52.276;9.946;2022-11-15T06:03:28;8.27;;;5.27;;
5841;SDS011;2947;52.276;9.946;2022-11-15T06:05:54;7.57;;;5.07;;
5841;SDS011;2947;52.276;9.946;2022-11-15T06:08:19;10.27;;;5.40;;
5841;SDS011;2947;52.276;9.946;2022-11-15T06:10:45;10.00;;;6.00;;
5841;SDS011;2947;52.276;9.946;2022-11-15T06:13:11;13.17;;;4.73;;
5841;SDS011;2947;52.276;9.946;2022-11-15T06:15:36;8.07;;;5.30;;
5841;SDS011;2947;52.276;9.946;2022-11-15T06:18:02;7.00;;;4.00;;
5841;SDS011;2947;52.276;9.946;2022-11-15T06:20:28;12.27;;;4.70;;
5841;SDS011;2947;52.276;9.946;2022-11-15T06:22:58;7.50;;;4.67;;
5841;SDS011;2947;52.276;9.946;2022-11-15T06:25:25;9.00;;;5.20;;
5841;SDS011;2947;52.276;9.946;2022-11-15T06:27:52;8.47;;;4.80;;
5841;SDS011;2947;52.276;9.946;2022-11-15T06:30:19;7.03;;;4.50;;
5841;SDS011;2947;52.276;9.946;2022-11-15T06:32:46;9.70;;;3.93;;
5841;SDS011;2947;52.276;9.946;2022-11-15T06:35:12;10.90;;;5.03;;
5841;SDS011;2947;52.276;9.946;2022-11-15T06:37:39;8.70;;;5.00;;
5841;SDS011;2947;52.276;9.946;2022-11-15T06:40:06;11.00;;;5.70;;
5841;SDS011;2947;52.276;9.946;2022-11-15T06:42:34;6.93;;;4.73;;
5841;SDS011;2947;52.276;9.946;2022-11-15T06:44:59;9.93;;;5.23;;
5841;SDS011;2947;52.276;9.946;2022-11-15T06:47:25;9.53;;;4.97;;
5841;SDS011;2947;52.276;9.946;2022-11-15T06:49:51;9.10;;;5.60;;
5841;SDS011;2947;52.276;9.946;2022-11-15T06:52:16;7.37;;;4.77;;
5841;SDS011;2947;52.276;9.946;2022-11-15T06:54:46;8.67;;;5.23;;
5841;SDS011;2947;52.276;9.946;2022-11-15T06:57:12;9.70;;;5.43;;
5841;SDS011;2947;52.276;9.946;2022-11-15T06:59:37;7.20;;;4.40;;
5841;SDS011;2947;52.276;9.946;2022-11-15T07:02:03;7.43;;;4.23;;
5841;SDS011;2947;52.276;9.946;2022-11-15T07:04:29;10.27;;;5.10;;
5841;SDS011;2947;52.276;9.946;2022-11-15T07:06:55;7.10;;;4.20;;
5841;SDS011;2947;52.276;9.946;2022-11-15T07:09:20;8.60;;;4.33;;
5841;SDS011;2947;52.276;9.946;2022-11-15T07:11:46;8.73;;;4.73;;
5841;SDS011;2947;52.276;9.946;2022-11-15T07:14:12;6.80;;;4.30;;
5841;SDS011;2947;52.276;9.946;2022-11-15T07:16:37;7.17;;;4.20;;
5841;SDS011;2947;52.276;9.946;2022-11-15T07:19:03;6.47;;;4.00;;
5841;SDS011;2947;52.276;9.946;2022-11-15T07:21:29;6.57;;;4.07;;
5841;SDS011;2947;52.276;9.946;2022-11-15T07:23:54;9.00;;;4.80;;
5841;SDS011;2947;52.276;9.946;2022-11-15T07:26:20;7.93;;;3.63;;
5841;SDS011;2947;52.276;9.946;2022-11-15T07:28:46;6.80;;;4.17;;
5841;SDS011;2947;52.276;9.946;2022-11-15T07:31:11;6.77;;;4.00;;
5841;SDS011;2947;52.276;9.946;2022-11-15T07:33:37;6.10;;;3.80;;
5841;SDS011;2947;52.276;9.946;2022-11-15T07:36:04;6.63;;;3.90;;
5841;SDS011;2947;52.276;9.946;2022-11-15T07:38:32;6.90;;;4.20;;
5841;SDS011;2947;52.276;9.946;2022-11-15T07:41:00;7.00;;;4.53;;
5841;SDS011;2947;52.276;9.946;2022-11-15T07:43:29;9.80;;;4.30;;
5841;SDS011;2947;52.276;9.946;2022-11-15T07:45:57;6.23;;;3.90;;
5841;SDS011;2947;52.276;9.946;2022-11-15T07:48:23;9.93;;;4.27;;
5841;SDS011;2947;52.276;9.946;2022-11-15T07:50:49;11.23;;;4.70;;
5841;SDS011;2947;52.276;9.946;2022-11-15T07:53:15;5.67;;;4.13;;
5841;SDS011;2947;52.276;9.946;2022-11-15T07:55:41;15.57;;;4.70;;
5841;SDS011;2947;52.276;9.946;2022-11-15T07:58:08;9.87;;;4.73;;
5841;SDS011;2947;52.276;9.946;2022-11-15T08:00:36;10.10;;;4.97;;
5841;SDS011;2947;52.276;9.946;2022-11-15T08:03:06;11.90;;;6.10;;
5841;SDS011;2947;52.276;9.946;2022-11-15T08:05:34;11.80;;;5.40;;
5841;SDS011;2947;52.276;9.946;2022-11-15T08:08:03;15.80;;;7.27;;
5841;SDS011;2947;52.276;9.946;2022-11-15T08:10:30;11.70;;;5.87;;
5841;SDS011;2947;52.276;9.946;2022-11-15T08:13:09;13.07;;;6.00;;
5841;SDS011;2947;52.276;9.946;2022-11-15T08:15:37;14.20;;;6.43;;
5841;SDS011;2947;52.276;9.946;2022-11-15T08:18:09;9.67;;;5.43;;
5841;SDS011;2947;52.276;9.946;2022-11-15T08:20:38;10.20;;;5.30;;
5841;SDS011;2947;52.276;9.946;2022-11-15T08:23:05;9.83;;;5.43;;
5841;SDS011;2947;52.276;9.946;2022-11-15T08:25:32;12.00;;;5.67;;
5841;SDS011;2947;52.276;9.946;2022-11-15T08:28:00;13.00;;;6.37;;
5841;SDS011;2947;52.276;9.946;2022-11-15T08:30:29;8.03;;;4.50;;
5841;SDS011;2947;52.276;9.946;2022-11-15T08:32:58;8.27;;;5.30;;
5841;SDS011;2947;52.276;9.946;2022-11-15T08:35:24;7.23;;;4.33;;
5841;SDS011;2947;52.276;9.946;2022-11-15T08:37:50;7.53;;;4.60;;
5841;SDS011;2947;52.276;9.946;2022-11-15T08:40:17;8.80;;;4.23;;
5841;SDS011;2947;52.276;9.946;2022-11-15T08:42:45;7.07;;;4.00;;
5841;SDS011;2947;52.276;9.946;2022-11-15T08:45:12;8.13;;;4.13;;
5841;SDS011;2947;52.276;9.946;2022-11-15T08:47:38;7.20;;;3.70;;
5841;SDS011;2947;52.276;9.946;2022-11-15T08:50:04;9.10;;;3.77;;
5841;SDS011;2947;52.276;9.946;2022-11-15T08:52:31;6.00;;;3.90;;
5841;SDS011;2947;52.276;9.946;2022-11-15T08:54:57;8.27;;;4.20;;
5841;SDS011;2947;52.276;9.946;2022-11-15T08:57:23;6.17;;;3.87;;
5841;SDS011;2947;52.276;9.946;2022-11-15T08:59:49;5.77;;;3.63;;
5841;SDS011;2947;52.276;9.946;2022-11-15T09:02:15;9.50;;;4.40;;
5841;SDS011;2947;52.276;9.946;2022-11-15T09:04:41;7.93;;;4.20;;
5841;SDS011;2947;52.276;9.946;2022-11-15T09:07:10;7.03;;;4.60;;
5841;SDS011;2947;52.276;9.946;2022-11-15T09:09:37;8.03;;;4.40;;
5841;SDS011;2947;52.276;9.946;2022-11-15T09:12:03;11.53;;;4.30;;
5841;SDS011;2947;52.276;9.946;2022-11-15T09:14:30;8.90;;;4.67;;
5841;SDS011;2947;52.276;9.946;2022-11-15T09:16:56;10.57;;;4.77;;
5841;SDS011;2947;52.276;9.946;2022-11-15T09:19:22;11.53;;;4.70;;
5841;SDS011;2947;52.276;9.946;2022-11-15T09:21:47;6.00;;;3.90;;
5841;SDS011;2947;52.276;9.946;2022-11-15T09:24:13;6.70;;;4.00;;
5841;SDS011;2947;52.276;9.946;2022-11-15T09:26:39;10.00;;;4.93;;
5841;SDS011;2947;52.276;9.946;2022-11-15T09:29:05;6.73;;;4.23;;
5841;SDS011;2947;52.276;9.946;2022-11-15T09:31:31;7.40;;;5.00;;
5841;SDS011;2947;52.276;9.946;2022-11-15T09:33:57;8.33;;;4.57;;
5841;SDS011;2947;52.276;9.946;2022-11-15T09:36:23;6.97;;;4.10;;
5841;SDS011;2947;52.276;9.946;2022-11-15T09:38:49;7.90;;;3.43;;
5841;SDS011;2947;52.276;9.946;2022-11-15T09:47:17;9.00;;;3.70;;
5841;SDS011;2947;52.276;9.946;2022-11-15T09:50:11;7.17;;;3.20;;
5841;SDS011;2947;52.276;9.946;2022-11-15T09:52:52;6.40;;;3.63;;
5841;SDS011;2947;52.276;9.946;2022-11-15T09:55:17;7.43;;;3.30;;
5841;SDS011;2947;52.276;9.946;2022-11-15T09:58:03;6.10;;;3.13;;
5841;SDS011;2947;52.276;9.946;2022-11-15T10:00:49;6.77;;;2.93;;
5841;SDS011;2947;52.276;9.946;2022-11-15T10:05:50;8.00;;;3.40;;
5841;SDS011;2947;52.276;9.946;2022-11-15T10:08:31;8.60;;;3.50;;
5841;SDS011;2947;52.276;9.946;2022-11-15T10:11:29;5.20;;;3.10;;
5841;SDS011;2947;52.276;9.946;2022-11-15T10:13:59;5.07;;;2.90;;
5841;SDS011;2947;52.276;9.946;2022-11-15T10:19:29;6.87;;;3.33;;
5841;SDS011;2947;52.276;9.946;2022-11-15T10:27:40;6.90;;;3.57;;
5841;SDS011;2947;52.276;9.946;2022-11-15T10:30:12;6.13;;;3.60;;
5841;SDS011;2947;52.276;9.946;2022-11-15T10:32:42;5.50;;;3.23;;
5841;SDS011;2947;52.276;9.946;2022-11-15T10:35:43;6.47;;;3.00;;
5841;SDS011;2947;52.276;9.946;2022-11-15T10:38:08;5.90;;;3.20;;
5841;SDS011;2947;52.276;9.946;2022-11-15T10:40:36;7.50;;;2.93;;
5841;SDS011;2947;52.276;9.946;2022-11-15T10:43:05;6.17;;;3.30;;
5841;SDS011;2947;52.276;9.946;2022-11-15T10:45:34;4.10;;;2.60;;
5841;SDS011;2947;52.276;9.946;2022-11-15T10:50:38;7.80;;;3.03;;
5841;SDS011;2947;52.276;9.946;2022-11-15T10:53:15;7.45;;;3.30;;
5841;SDS011;2947;52.276;9.946;2022-11-15T10:55:52;4.67;;;2.63;;
5841;SDS011;2947;52.276;9.946;2022-11-15T10:58:27;8.77;;;3.17;;
5841;SDS011;2947;52.276;9.946;2022-11-15T11:01:35;5.10;;;2.90;;
5841;SDS011;2947;52.276;9.946;2022-11-15T11:04:01;4.83;;;2.90;;
5841;SDS011;2947;52.276;9.946;2022-11-15T11:09:21;6.22;;;4.15;;
5841;SDS011;2947;52.276;9.946;2022-11-15T11:11:50;4.70;;;2.97;;
5841;SDS011;2947;52.276;9.946;2022-11-15T11:14:27;6.20;;;2.60;;
5841;SDS011;2947;52.276;9.946;2022-11-15T11:28:42;4.70;;;2.80;;
5841;SDS011;2947;52.276;9.946;2022-11-15T11:42:58;6.50;;;3.47;;
5841;SDS011;2947;52.276;9.946;2022-11-15T11:45:48;4.93;;;3.00;;
5841;SDS011;2947;52.276;9.946;2022-11-15T11:51:12;5.82;;;3.22;;
5841;SDS011;2947;52.276;9.946;2022-11-15T11:53:57;7.97;;;3.13;;
5841;SDS011;2947;52.276;9.946;2022-11-15T11:56:31;4.88;;;2.58;;
5841;SDS011;2947;52.276;9.946;2022-11-15T11:59:06;4.35;;;2.53;;
5841;SDS011;2947;52.276;9.946;2022-11-15T12:01:42;5.63;;;3.47;;
5841;SDS011;2947;52.276;9.946;2022-11-15T12:04:29;7.80;;;2.88;;
5841;SDS011;2947;52.276;9.946;2022-11-15T12:07:19;4.05;;;2.67;;
5841;SDS011;2947;52.276;9.946;2022-11-15T12:09:58;4.03;;;2.53;;
5841;SDS011;2947;52.276;9.946;2022-11-15T12:12:52;5.15;;;2.83;;
5841;SDS011;2947;52.276;9.946;2022-11-15T12:15:43;6.20;;;3.13;;
5841;SDS011;2947;52.276;9.946;2022-11-15T12:18:17;4.50;;;2.70;;
5841;SDS011;2947;52.276;9.946;2022-11-15T12:21:06;3.90;;;2.60;;
5841;SDS011;2947;52.276;9.946;2022-11-15T12:23:38;6.47;;;2.80;;
5841;SDS011;2947;52.276;9.946;2022-11-15T12:26:20;8.23;;;2.92;;
5841;SDS011;2947;52.276;9.946;2022-11-15T12:28:52;5.88;;;3.67;;
5841;SDS011;2947;52.276;9.946;2022-11-15T12:31:24;4.88;;;2.70;;
5841;SDS011;2947;52.276;9.946;2022-11-15T12:34:48;4.35;;;2.50;;
5841;SDS011;2947;52.276;9.946;2022-11-15T12:36:48;6.38;;;3.20;;
5841;SDS011;2947;52.276;9.946;2022-11-15T12:39:15;6.43;;;3.45;;
5841;SDS011;2947;52.276;9.946;2022-11-15T12:41:43;5.63;;;3.03;;
5841;SDS011;2947;52.276;9.946;2022-11-15T13:02:26;7.90;;;3.10;;
5841;SDS011;2947;52.276;9.946;2022-11-15T13:17:48;7.43;;;3.28;;
5841;SDS011;2947;52.276;9.946;2022-11-15T13:20:19;5.13;;;2.88;;
5841;SDS011;2947;52.276;9.946;2022-11-15T13:22:51;6.93;;;2.97;;
5841;SDS011;2947;52.276;9.946;2022-11-15T13:30:41;7.00;;;2.92;;
5841;SDS011;2947;52.276;9.946;2022-11-15T13:33:33;5.85;;;2.97;;
5841;SDS011;2947;52.276;9.946;2022-11-15T13:36:02;6.85;;;3.08;;
5841;SDS011;2947;52.276;9.946;2022-11-15T13:38:34;8.70;;;4.20;;
5841;SDS011;2947;52.276;9.946;2022-11-15T13:41:19;7.85;;;3.55;;
5841;SDS011;2947;52.276;9.946;2022-11-15T13:43:54;6.90;;;4.05;;
5841;SDS011;2947;52.276;9.946;2022-11-15T13:46:28;7.55;;;3.30;;
5841;SDS011;2947;52.276;9.946;2022-11-15T13:51:40;7.65;;;3.83;;
5841;SDS011;2947;52.276;9.946;2022-11-15T13:56:37;5.30;;;3.28;;
5841;SDS011;2947;52.276;9.946;2022-11-15T13:59:13;7.55;;;3.00;;
5841;SDS011;2947;52.276;9.946;2022-11-15T14:01:53;4.55;;;2.92;;
5841;SDS011;2947;52.276;9.946;2022-11-15T14:04:23;4.85;;;2.40;;
5841;SDS011;2947;52.276;9.946;2022-11-15T14:06:55;7.18;;;3.08;;
5841;SDS011;2947;52.276;9.946;2022-11-15T14:09:36;7.18;;;3.03;;
5841;SDS011;2947;52.276;9.946;2022-11-15T14:14:58;6.13;;;2.95;;
5841;SDS011;2947;52.276;9.946;2022-11-15T14:17:45;4.72;;;2.53;;
5841;SDS011;2947;52.276;9.946;2022-11-15T14:22:58;4.15;;;2.70;;
5841;SDS011;2947;52.276;9.946;2022-11-15T14:25:28;4.13;;;2.40;;
5841;SDS011;2947;52.276;9.946;2022-11-15T14:30:56;4.45;;;2.40;;
5841;SDS011;2947;52.276;9.946;2022-11-15T14:38:37;4.68;;;2.13;;
5841;SDS011;2947;52.276;9.946;2022-11-15T14:41:02;4.70;;;3.00;;
5841;SDS011;2947;52.276;9.946;2022-11-15T14:43:30;7.35;;;3.28;;
5841;SDS011;2947;52.276;9.946;2022-11-15T14:45:56;7.15;;;2.80;;
5841;SDS011;2947;52.276;9.946;2022-11-15T14:48:21;6.88;;;4.10;;
5841;SDS011;2947;52.276;9.946;2022-11-15T14:50:47;7.20;;;3.78;;
5841;SDS011;2947;52.276;9.946;2022-11-15T14:53:14;7.22;;;3.45;;
5841;SDS011;2947;52.276;9.946;2022-11-15T14:55:41;7.65;;;3.45;;
5841;SDS011;2947;52.276;9.946;2022-11-15T14:58:08;7.50;;;3.95;;
5841;SDS011;2947;52.276;9.946;2022-11-15T15:00:35;6.75;;;3.95;;
5841;SDS011;2947;52.276;9.946;2022-11-15T15:03:02;5.25;;;3.45;;
5841;SDS011;2947;52.276;9.946;2022-11-15T15:05:37;4.90;;;2.95;;
5841;SDS011;2947;52.276;9.946;2022-11-15T15:08:06;9.85;;;3.40;;
5841;SDS011;2947;52.276;9.946;2022-11-15T15:10:35;7.75;;;3.20;;
5841;SDS011;2947;52.276;9.946;2022-11-15T15:13:05;4.95;;;2.90;;
5841;SDS011;2947;52.276;9.946;2022-11-15T15:15:34;7.53;;;3.33;;
5841;SDS011;2947;52.276;9.946;2022-11-15T15:18:02;4.78;;;2.85;;
5841;SDS011;2947;52.276;9.946;2022-11-15T15:20:30;5.22;;;2.63;;
5841;SDS011;2947;52.276;9.946;2022-11-15T15:22:57;5.50;;;2.72;;
5841;SDS011;2947;52.276;9.946;2022-11-15T15:25:27;4.13;;;2.90;;
5841;SDS011;2947;52.276;9.946;2022-11-15T15:27:58;6.35;;;3.50;;
5841;SDS011;2947;52.276;9.946;2022-11-15T15:30:25;6.75;;;4.28;;
5841;SDS011;2947;52.276;9.946;2022-11-15T15:32:54;9.77;;;4.03;;
5841;SDS011;2947;52.276;9.946;2022-11-15T15:35:20;5.95;;;3.40;;
5841;SDS011;2947;52.276;9.946;2022-11-15T15:37:47;7.80;;;3.97;;
5841;SDS011;2947;52.276;9.946;2022-11-15T15:40:23;10.40;;;5.50;;
5841;SDS011;2947;52.276;9.946;2022-11-15T15:42:50;7.57;;;4.57;;
5841;SDS011;2947;52.276;9.946;2022-11-15T15:45:17;10.00;;;4.50;;
5841;SDS011;2947;52.276;9.946;2022-11-15T15:47:44;9.45;;;4.57;;
5841;SDS011;2947;52.276;9.946;2022-11-15T15:50:14;9.93;;;5.78;;
5841;SDS011;2947;52.276;9.946;2022-11-15T15:52:47;12.73;;;6.13;;
5841;SDS011;2947;52.276;9.946;2022-11-15T15:55:13;13.13;;;5.93;;
5841;SDS011;2947;52.276;9.946;2022-11-15T15:57:39;17.30;;;5.93;;
5841;SDS011;2947;52.276;9.946;2022-11-15T16:00:05;10.05;;;4.45;;
5841;SDS011;2947;52.276;9.946;2022-11-15T16:02:31;8.82;;;4.90;;
5841;SDS011;2947;52.276;9.946;2022-11-15T16:04:57;8.32;;;5.30;;
5841;SDS011;2947;52.276;9.946;2022-11-15T16:07:22;9.48;;;5.35;;
5841;SDS011;2947;52.276;9.946;2022-11-15T16:09:49;15.05;;;6.00;;
5841;SDS011;2947;52.276;9.946;2022-11-15T16:12:28;9.10;;;5.80;;
5841;SDS011;2947;52.276;9.946;2022-11-15T16:15:01;13.07;;;6.13;;
5841;SDS011;2947;52.276;9.946;2022-11-15T16:17:30;12.68;;;6.03;;
5841;SDS011;2947;52.276;9.946;2022-11-15T16:19:59;13.13;;;5.78;;
5841;SDS011;2947;52.276;9.946;2022-11-15T16:22:25;12.30;;;6.78;;
5841;SDS011;2947;52.276;9.946;2022-11-15T16:24:53;12.93;;;5.38;;
5841;SDS011;2947;52.276;9.946;2022-11-15T16:27:19;13.82;;;6.13;;
5841;SDS011;2947;52.276;9.946;2022-11-15T16:29:46;11.57;;;6.22;;
5841;SDS011;2947;52.276;9.946;2022-11-15T16:32:12;14.45;;;6.25;;
5841;SDS011;2947;52.276;9.946;2022-11-15T16:34:39;13.98;;;6.80;;
5841;SDS011;2947;52.276;9.946;2022-11-15T16:37:05;12.40;;;6.70;;
5841;SDS011;2947;52.276;9.946;2022-11-15T16:39:31;13.38;;;7.22;;
5841;SDS011;2947;52.276;9.946;2022-11-15T16:41:57;13.85;;;6.95;;
5841;SDS011;2947;52.276;9.946;2022-11-15T16:44:24;12.85;;;7.25;;
5841;SDS011;2947;52.276;9.946;2022-11-15T16:46:49;13.55;;;6.30;;
5841;SDS011;2947;52.276;9.946;2022-11-15T16:49:16;19.45;;;9.77;;
5841;SDS011;2947;52.276;9.946;2022-11-15T16:51:46;17.80;;;7.75;;
5841;SDS011;2947;52.276;9.946;2022-11-15T16:54:13;9.27;;;5.75;;
5841;SDS011;2947;52.276;9.946;2022-11-15T16:56:39;15.50;;;8.13;;
5841;SDS011;2947;52.276;9.946;2022-11-15T16:59:05;13.40;;;7.30;;
5841;SDS011;2947;52.276;9.946;2022-11-15T17:01:34;11.55;;;6.65;;
5841;SDS011;2947;52.276;9.946;2022-11-15T17:04:10;11.47;;;7.00;;
5841;SDS011;2947;52.276;9.946;2022-11-15T17:06:37;11.45;;;6.60;;
5841;SDS011;2947;52.276;9.946;2022-11-15T17:09:05;10.02;;;6.20;;
5841;SDS011;2947;52.276;9.946;2022-11-15T17:11:33;10.57;;;6.20;;
5841;SDS011;2947;52.276;9.946;2022-11-15T17:13:59;12.80;;;7.00;;
5841;SDS011;2947;52.276;9.946;2022-11-15T17:16:25;14.73;;;7.17;;
5841;SDS011;2947;52.276;9.946;2022-11-15T17:18:51;13.37;;;6.57;;
5841;SDS011;2947;52.276;9.946;2022-11-15T17:21:17;11.63;;;6.80;;
5841;SDS011;2947;52.276;9.946;2022-11-15T17:23:45;11.93;;;6.65;;
5841;SDS011;2947;52.276;9.946;2022-11-15T17:26:12;12.87;;;7.13;;
5841;SDS011;2947;52.276;9.946;2022-11-15T17:28:40;14.63;;;8.10;;
5841;SDS011;2947;52.276;9.946;2022-11-15T17:31:06;14.73;;;8.13;;
5841;SDS011;2947;52.276;9.946;2022-11-15T17:33:35;16.50;;;8.17;;
5841;SDS011;2947;52.276;9.946;2022-11-15T17:36:03;18.00;;;8.80;;
5841;SDS011;2947;52.276;9.946;2022-11-15T17:38:31;13.27;;;7.70;;
5841;SDS011;2947;52.276;9.946;2022-11-15T17:43:34;14.10;;;7.20;;
5841;SDS011;2947;52.276;9.946;2022-11-15T17:46:03;11.87;;;7.00;;
5841;SDS011;2947;52.276;9.946;2022-11-15T17:48:32;12.82;;;6.88;;
5841;SDS011;2947;52.276;9.946;2022-11-15T17:51:02;12.63;;;6.70;;
5841;SDS011;2947;52.276;9.946;2022-11-15T17:53:31;13.73;;;6.93;;